Time;durP1;ratioP1;P1;durP2;ratioP2;P2;SDS_P1;SDS_P2;PMS_P1;PMS_P2;Temp;Humidity;BMP_temperature;BMP_pressure;BME280_temperature;BME280_humidity;BME280_pressure;Samples;Min_cycle;Max_cycle;Signal;HPM_P1;HPM_P2
2022/07/29 00:00:20;;;;;;;2.25;1.60;;;;;;;16.96;75.96;100869.78;10563964;28;20036;-76
2022/07/29 00:05:23;;;;;;;1.90;1.55;;;;;;;17.04;75.59;100874.56;10600191;28;20050;-75
2022/07/29 00:10:25;;;;;;;2.15;1.52;;;;;;;16.91;75.99;100869.09;10573089;28;20040;-75
2022/07/29 00:15:28;;;;;;;3.10;1.77;;;;;;;16.95;76.06;100875.63;10612213;28;20040;-75
2022/07/29 00:20:30;;;;;;;3.30;2.35;;;;;;;16.82;76.65;100880.94;10584919;28;20405;-75
2022/07/29 00:25:32;;;;;;;2.60;1.92;;;;;;;16.76;76.83;100871.13;10595099;28;20036;-76
2022/07/29 00:30:34;;;;;;;3.15;2.20;;;;;;;16.87;76.95;100866.16;10591030;28;20452;-75
2022/07/29 00:35:43;;;;;;;2.10;1.88;;;;;;;16.78;77.20;100859.72;10614461;28;20056;-75
2022/07/29 00:40:46;;;;;;;2.92;1.83;;;;;;;16.82;76.88;100874.59;10612294;28;20047;-76
2022/07/29 00:45:49;;;;;;;2.97;1.80;;;;;;;16.72;77.02;100874.88;10599691;28;20511;-76
2022/07/29 00:50:51;;;;;;;1.83;1.50;;;;;;;16.59;77.32;100873.75;10607877;28;20036;-76
2022/07/29 00:55:54;;;;;;;3.33;1.58;;;;;;;16.66;77.51;100870.53;10593681;28;20052;-76
2022/07/29 01:00:57;;;;;;;1.60;1.40;;;;;;;16.66;77.11;100876.94;10609621;28;20046;-76
2022/07/29 01:06:00;;;;;;;1.55;1.33;;;;;;;16.65;77.10;100872.50;10595392;28;20101;-75
2022/07/29 01:11:02;;;;;;;1.90;1.30;;;;;;;16.48;77.36;100866.84;10593573;28;20059;-76
2022/07/29 01:16:13;;;;;;;2.28;1.40;;;;;;;16.33;78.22;100865.28;10594472;28;20508;-76
2022/07/29 01:21:35;;;;;;;1.80;1.50;;;;;;;16.26;78.25;100868.47;10601023;28;20032;-76
2022/07/29 01:26:59;;;;;;;2.15;1.30;;;;;;;16.15;78.50;100863.50;10586420;28;20060;-76
2022/07/29 01:32:04;;;;;;;2.00;1.10;;;;;;;16.28;78.37;100868.16;10593555;28;20441;-75
2022/07/29 01:37:20;;;;;;;1.50;1.40;;;;;;;16.28;78.16;100868.16;10567953;28;20074;-74
2022/07/29 01:42:22;;;;;;;2.58;1.20;;;;;;;16.21;78.67;100873.31;10574700;28;20040;-73
2022/07/29 01:47:29;;;;;;;1.80;1.40;;;;;;;16.30;78.00;100865.88;10578698;28;20043;-73
2022/07/29 01:52:34;;;;;;;1.40;1.25;;;;;;;16.25;77.53;100871.56;10593184;28;20130;-73
2022/07/29 01:57:37;;;;;;;1.83;1.30;;;;;;;16.17;77.20;100866.78;10575192;28;20055;-73
2022/07/29 02:02:42;;;;;;;1.17;1.08;;;;;;;16.26;77.26;100862.13;10564303;28;20044;-73
2022/07/29 02:07:47;;;;;;;1.70;1.33;;;;;;;16.30;76.89;100871.44;10564370;28;20059;-73
2022/07/29 02:12:50;;;;;;;2.38;1.50;;;;;;;16.35;76.70;100868.56;10578521;28;20421;-73
2022/07/29 02:18:01;;;;;;;2.80;1.38;;;;;;;16.54;76.53;100871.94;10552062;28;20055;-73
2022/07/29 02:23:04;;;;;;;1.52;1.13;;;;;;;17.11;74.76;100877.69;10572184;28;20039;-73
2022/07/29 02:28:07;;;;;;;2.30;1.50;;;;;;;17.29;73.56;100875.81;10568339;28;20035;-73
2022/07/29 02:33:12;;;;;;;2.35;1.35;;;;;;;17.36;72.79;100876.16;10598128;28;20040;-73
2022/07/29 02:43:38;;;;;;;2.70;1.60;;;;;;;17.42;71.98;100885.97;10585329;28;20036;-72
2022/07/29 02:48:45;;;;;;;2.15;1.80;;;;;;;17.29;72.54;100892.44;10601625;28;20046;-71
2022/07/29 02:53:51;;;;;;;2.08;1.63;;;;;;;17.05;73.04;100892.84;10599401;28;20461;-71
2022/07/29 02:58:58;;;;;;;1.60;1.42;;;;;;;16.99;73.59;100882.19;10595700;28;20043;-71
2022/07/29 03:04:03;;;;;;;1.67;1.38;;;;;;;16.72;74.16;100883.19;10572786;28;20059;-71
2022/07/29 03:09:07;;;;;;;3.20;1.45;;;;;;;16.75;74.04;100885.31;10585973;28;20039;-72
2022/07/29 03:14:09;;;;;;;5.40;1.50;;;;;;;16.81;74.13;100884.03;10585590;28;20054;-71
2022/07/29 03:19:12;;;;;;;3.47;1.55;;;;;;;16.71;74.69;100876.00;10586769;28;20064;-71
2022/07/29 03:24:25;;;;;;;2.22;1.80;;;;;;;16.72;75.09;100875.69;10541979;28;20040;-72
2022/07/29 03:29:28;;;;;;;4.57;1.50;;;;;;;16.62;75.43;100875.09;10585204;28;20044;-72
2022/07/29 03:34:30;;;;;;;2.33;1.30;;;;;;;16.57;75.58;100871.31;10557796;28;20052;-72
2022/07/29 03:39:36;;;;;;;1.98;1.80;;;;;;;16.42;75.53;100868.09;10575677;28;20551;-72
2022/07/29 03:44:40;;;;;;;2.83;1.65;;;;;;;16.54;75.43;100874.72;10572055;28;20516;-74
2022/07/29 03:49:44;;;;;;;1.70;1.60;;;;;;;16.66;74.84;100874.16;10591714;28;20413;-72
2022/07/29 03:54:46;;;;;;;2.05;1.30;;;;;;;16.69;74.89;100876.31;10609961;28;20510;-71
2022/07/29 04:00:08;;;;;;;1.98;1.40;;;;;;;16.53;74.97;100881.41;10596532;28;20032;-72
2022/07/29 04:05:14;;;;;;;2.33;1.58;;;;;;;16.54;75.21;100877.50;10597844;28;20039;-72
2022/07/29 04:10:18;;;;;;;2.80;1.58;;;;;;;16.81;75.49;100889.56;10595153;28;20051;-72
2022/07/29 04:15:20;;;;;;;5.15;1.58;;;;;;;16.69;75.48;100890.19;10540367;28;20047;-72
2022/07/29 04:20:22;;;;;;;2.05;1.50;;;;;;;16.99;75.30;100893.25;10590784;28;20043;-73
2022/07/29 04:25:25;;;;;;;3.33;1.45;;;;;;;17.74;72.87;100878.44;10603472;28;20043;-73
2022/07/29 04:30:28;;;;;;;1.35;1.20;;;;;;;18.70;69.67;100871.75;10582054;28;20425;-72
2022/07/29 04:35:33;;;;;;;1.70;1.33;;;;;;;19.55;66.55;100877.34;10566069;28;20043;-72
2022/07/29 04:40:35;;;;;;;2.00;1.45;;;;;;;20.13;63.78;100876.50;10575592;28;20044;-72
2022/07/29 04:45:37;;;;;;;2.85;1.20;;;;;;;20.72;62.00;100879.09;10605740;27;20047;-72
2022/07/29 04:50:40;;;;;;;1.52;1.20;;;;;;;20.76;61.42;100870.84;10598355;28;20047;-71
2022/07/29 04:55:43;;;;;;;1.17;1.08;;;;;;;20.50;61.54;100870.31;10593684;28;20066;-72
2022/07/29 05:00:46;;;;;;;1.80;0.90;;;;;;;20.29;62.35;100870.28;10595088;28;20421;-72
2022/07/29 05:05:49;;;;;;;1.33;1.23;;;;;;;20.18;62.85;100867.09;10606565;28;20049;-72
2022/07/29 05:10:51;;;;;;;1.40;1.17;;;;;;;19.94;62.64;100875.31;10612119;28;20055;-71
2022/07/29 05:15:54;;;;;;;1.13;0.90;;;;;;;19.74;63.53;100880.50;10614686;28;20036;-71
2022/07/29 05:20:56;;;;;;;3.55;1.30;;;;;;;19.58;63.86;100876.69;10613516;28;20044;-72
2022/07/29 05:25:58;;;;;;;1.30;1.20;;;;;;;19.46;64.45;100882.94;10605415;28;20501;-72
2022/07/29 05:31:00;;;;;;;2.60;1.05;;;;;;;19.74;64.69;100879.69;10595321;28;20047;-71
2022/07/29 05:36:06;;;;;;;4.50;1.60;;;;;;;19.86;63.84;100877.81;10609637;28;20063;-71
2022/07/29 05:41:08;;;;;;;2.53;1.17;;;;;;;19.82;63.86;100887.19;10570526;28;20040;-71
2022/07/29 05:46:11;;;;;;;0.98;0.98;;;;;;;19.78;63.84;100886.22;10570601;28;20048;-72
2022/07/29 05:51:13;;;;;;;2.35;1.23;;;;;;;19.58;63.71;100887.81;10570399;28;20394;-72
2022/07/29 05:56:16;;;;;;;1.48;1.10;;;;;;;19.56;64.24;100877.00;10571909;28;20051;-72
2022/07/29 06:01:18;;;;;;;0.82;0.80;;;;;;;19.48;63.45;100882.63;10590085;28;20043;-72
2022/07/29 06:06:22;;;;;;;1.75;0.93;;;;;;;19.39;63.79;100877.06;10558939;28;20039;-72
2022/07/29 06:11:24;;;;;;;1.77;1.10;;;;;;;19.37;63.48;100868.25;10569387;28;20078;-71
2022/07/29 06:16:27;;;;;;;1.02;0.95;;;;;;;19.37;63.45;100873.81;10580871;28;20059;-71
2022/07/29 06:21:29;;;;;;;1.88;1.02;;;;;;;19.41;63.78;100879.53;10569115;28;20417;-71
2022/07/29 06:26:31;;;;;;;5.75;1.20;;;;;;;19.48;63.93;100877.88;10551430;28;20036;-72
2022/07/29 06:31:33;;;;;;;4.38;1.02;;;;;;;19.62;63.29;100874.88;10551990;28;20498;-72
2022/07/29 06:36:37;;;;;;;2.10;1.02;;;;;;;19.80;63.35;100875.59;10569371;28;20048;-72
2022/07/29 06:41:39;;;;;;;1.80;0.80;;;;;;;20.02;62.82;100871.66;10551172;28;20048;-72
2022/07/29 06:46:48;;;;;;;1.88;0.93;;;;;;;20.36;62.51;100884.50;10551009;28;20048;-72
2022/07/29 06:51:51;;;;;;;2.50;1.80;;;;;;;20.51;60.69;100886.69;10568667;28;20048;-72
2022/07/29 06:56:53;;;;;;;1.77;1.10;;;;;;;20.58;59.38;100881.38;10550346;28;20067;-72
2022/07/29 07:01:55;;;;;;;1.15;0.70;;;;;;;20.86;58.22;100886.34;10535051;28;20048;-72
2022/07/29 07:06:58;;;;;;;0.63;0.63;;;;;;;21.05;55.99;100886.63;10575218;28;20047;-72
2022/07/29 07:12:01;;;;;;;3.33;0.85;;;;;;;21.32;55.37;100888.78;10610287;28;20501;-71
2022/07/29 07:17:04;;;;;;;1.38;0.70;;;;;;;21.85;54.46;100891.66;10583385;28;20059;-72
2022/07/29 07:22:06;;;;;;;1.02;0.90;;;;;;;22.14;53.52;100896.19;10575189;28;20052;-72
2022/07/29 07:27:08;;;;;;;1.00;0.88;;;;;;;22.21;52.27;100885.22;10579959;28;20036;-72
2022/07/29 07:32:10;;;;;;;2.88;0.80;;;;;;;22.10;52.00;100893.28;10580127;28;20043;-71
2022/07/29 07:37:14;;;;;;;1.15;0.90;;;;;;;21.92;53.07;100884.34;10617118;28;20044;-72
2022/07/29 07:42:16;;;;;;;3.20;0.90;;;;;;;21.68;53.22;100884.34;10617883;28;20410;-72
2022/07/29 07:47:19;;;;;;;2.58;0.77;;;;;;;21.37;53.77;100890.53;10614470;28;20042;-72
2022/07/29 07:52:22;;;;;;;4.18;0.85;;;;;;;21.32;53.33;100891.56;10591965;28;20039;-72
2022/07/29 07:57:27;;;;;;;0.70;0.70;;;;;;;21.76;52.23;100883.44;10575506;28;20036;-72
2022/07/29 08:02:29;;;;;;;1.10;0.70;;;;;;;22.19;51.36;100884.75;10616263;28;20040;-71
2022/07/29 08:07:32;;;;;;;0.90;0.77;;;;;;;22.37;51.46;100883.31;10614560;28;20051;-72
2022/07/29 08:12:34;;;;;;;1.48;0.80;;;;;;;22.35;51.26;100879.25;10612144;28;20046;-71
2022/07/29 08:17:36;;;;;;;1.27;0.90;;;;;;;22.60;51.51;100879.97;10611747;28;20047;-71
2022/07/29 08:22:38;;;;;;;2.38;1.20;;;;;;;22.64;51.37;100886.47;10616463;28;20061;-71
2022/07/29 08:27:41;;;;;;;0.70;0.70;;;;;;;22.45;51.06;100899.13;10586588;28;20040;-71
2022/07/29 08:32:43;;;;;;;0.50;0.50;;;;;;;22.22;50.51;100898.06;10556039;28;20615;-71
2022/07/29 08:37:45;;;;;;;0.82;0.70;;;;;;;21.94;50.95;100892.38;10573008;28;20048;-71
2022/07/29 08:42:47;;;;;;;2.63;0.90;;;;;;;21.85;51.36;100903.66;10573244;28;20051;-71
2022/07/29 08:47:49;;;;;;;0.30;0.30;;;;;;;21.96;51.49;100907.59;10554780;28;20060;-71
2022/07/29 08:52:52;;;;;;;0.60;0.60;;;;;;;22.16;51.04;100913.41;10572340;28;20052;-72
2022/07/29 08:57:55;;;;;;;0.75;0.75;;;;;;;22.38;50.66;100903.69;10573246;28;20055;-72
2022/07/29 09:03:00;;;;;;;0.50;0.50;;;;;;;22.45;50.77;100910.31;10612757;28;20043;-72
2022/07/29 09:08:04;;;;;;;1.00;0.90;;;;;;;22.35;51.03;100905.22;10591947;28;20042;-72
2022/07/29 09:13:06;;;;;;;0.68;0.60;;;;;;;22.37;51.27;100916.03;10598448;28;20417;-72
2022/07/29 09:18:08;;;;;;;1.40;0.90;;;;;;;22.29;51.17;100925.41;10600429;28;20044;-72
2022/07/29 09:23:10;;;;;;;0.70;0.60;;;;;;;22.14;50.68;100921.34;10604237;28;20043;-72
2022/07/29 09:28:16;;;;;;;1.70;0.70;;;;;;;21.98;51.39;100910.03;10599096;28;20035;-72
2022/07/29 09:33:18;;;;;;;0.60;0.60;;;;;;;21.95;50.18;100917.16;10598439;28;20024;-72
2022/07/29 09:38:21;;;;;;;2.25;0.50;;;;;;;21.96;51.63;100913.19;10592126;28;20062;-72
2022/07/29 09:43:23;;;;;;;1.10;0.50;;;;;;;22.05;52.24;100917.88;10569736;28;20054;-74
2022/07/29 09:48:25;;;;;;;0.70;0.70;;;;;;;21.72;52.70;100921.63;10572666;28;20390;-75
2022/07/29 09:53:30;;;;;;;0.95;0.73;;;;;;;21.46;52.68;100918.34;10604549;28;20042;-84
2022/07/29 09:58:33;;;;;;;0.50;0.50;;;;;;;21.14;53.37;100912.44;10598327;28;20035;-80
2022/07/29 10:03:52;;;;;;;0.57;0.55;;;;;;;20.94;54.42;100921.69;10594544;28;20044;-72
2022/07/29 10:08:54;;;;;;;1.48;0.52;;;;;;;20.82;54.54;100918.84;10591637;28;20064;-72
2022/07/29 10:13:57;;;;;;;1.40;0.70;;;;;;;20.56;54.76;100914.34;10590439;28;20339;-72
2022/07/29 10:19:00;;;;;;;1.90;0.60;;;;;;;20.55;54.81;100911.91;10579551;28;20447;-72
2022/07/29 10:24:04;;;;;;;0.70;0.70;;;;;;;20.62;53.69;100917.72;10572171;28;20614;-73
2022/07/29 10:29:09;;;;;;;0.85;0.60;;;;;;;20.68;53.21;100908.84;10591597;28;20790;-73
2022/07/29 10:34:30;;;;;;;0.80;0.60;;;;;;;20.85;52.67;100912.63;10594513;28;20126;-72
2022/07/29 10:45:49;;;;;;;0.60;0.60;;;;;;;21.40;53.03;100911.34;10491520;28;20059;-73
2022/07/29 10:51:00;;;;;;;1.27;0.40;;;;;;;21.41;51.89;100915.78;10571617;28;20035;-72
2022/07/29 10:56:02;;;;;;;0.63;0.52;;;;;;;21.33;51.41;100917.50;10581979;28;20047;-72
2022/07/29 11:01:31;;;;;;;1.30;0.50;;;;;;;21.31;52.30;100909.47;10577091;28;20040;-73
2022/07/29 11:07:04;;;;;;;2.22;0.52;;;;;;;21.21;52.19;100915.50;10591383;28;20519;-72
2022/07/29 11:12:36;;;;;;;0.73;0.60;;;;;;;21.14;51.65;100908.84;10582826;28;20039;-72
2022/07/29 11:18:08;;;;;;;0.65;0.50;;;;;;;21.25;52.10;100912.84;10611129;28;20044;-72
2022/07/29 11:23:27;;;;;;;1.85;0.50;;;;;;;21.23;51.81;100910.38;10594510;28;20043;-72
2022/07/29 11:28:30;;;;;;;0.95;0.60;;;;;;;21.23;50.30;100910.38;10615030;28;20055;-72
2022/07/29 11:33:33;;;;;;;2.05;0.73;;;;;;;21.30;50.99;100912.63;10572039;28;20055;-73
2022/07/29 11:38:35;;;;;;;0.50;0.45;;;;;;;21.29;50.34;100922.16;10607678;28;20040;-78
2022/07/29 11:43:47;;;;;;;1.55;0.52;;;;;;;21.25;49.08;100922.03;10578528;28;20043;-74
2022/07/29 11:48:49;;;;;;;0.93;0.70;;;;;;;21.14;50.32;100923.59;10614929;28;20043;-73
2022/07/29 11:53:52;;;;;;;1.23;0.30;;;;;;;21.02;49.44;100929.16;10606968;28;20398;-72
2022/07/29 11:59:05;;;;;;;1.58;0.40;;;;;;;20.85;50.42;100921.78;10594686;28;20489;-74
2022/07/29 12:04:07;;;;;;;1.02;0.65;;;;;;;20.75;51.47;100920.25;10572472;28;20054;-74
2022/07/29 12:09:10;;;;;;;0.57;0.57;;;;;;;20.65;53.44;100931.84;10608278;28;20062;-74
2022/07/29 12:14:28;;;;;;;1.45;1.02;;;;;;;20.60;53.63;100923.66;10557955;28;20048;-73
2022/07/29 12:19:42;;;;;;;0.68;0.45;;;;;;;20.53;54.57;100931.78;10592478;28;20036;-74
2022/07/29 12:24:51;;;;;;;1.38;0.60;;;;;;;20.50;54.67;100929.66;10615876;28;20043;-74
2022/07/29 12:29:57;;;;;;;0.88;0.50;;;;;;;20.40;53.77;100936.44;10592068;28;20047;-73
2022/07/29 12:35:05;;;;;;;0.38;0.38;;;;;;;20.49;54.55;100924.44;10612317;28;20543;-72
2022/07/29 12:40:09;;;;;;;1.70;0.60;;;;;;;20.59;54.01;100926.78;10585090;28;20047;-72
2022/07/29 12:45:16;;;;;;;1.13;0.38;;;;;;;20.59;53.30;100929.56;10584754;28;20086;-73
2022/07/29 12:50:18;;;;;;;0.85;0.50;;;;;;;20.65;54.43;100944.94;10611119;28;20409;-73
2022/07/29 12:55:43;;;;;;;0.57;0.50;;;;;;;20.57;55.36;100934.69;10612816;28;20040;-73
2022/07/29 13:00:45;;;;;;;3.30;0.50;;;;;;;20.36;56.33;100949.41;10580320;28;20054;-73
2022/07/29 13:05:47;;;;;;;1.02;0.50;;;;;;;20.12;56.82;100940.88;10601134;28;20036;-74
2022/07/29 13:10:50;;;;;;;1.08;0.50;;;;;;;19.94;57.63;100929.03;10605358;28;20047;-74
2022/07/29 13:16:07;;;;;;;0.77;0.47;;;;;;;19.98;58.18;100932.81;10585488;28;20048;-75
2022/07/29 13:21:14;;;;;;;0.60;0.43;;;;;;;19.97;58.64;100927.56;10604014;28;20093;-74
2022/07/29 13:26:19;;;;;;;1.38;0.50;;;;;;;19.91;59.07;100928.91;10604506;28;20044;-73
2022/07/29 13:31:22;;;;;;;0.65;0.52;;;;;;;19.86;59.35;100927.13;10604295;28;20047;-74
2022/07/29 13:36:24;;;;;;;0.55;0.30;;;;;;;19.69;59.88;100922.47;10602939;28;20110;-75
2022/07/29 13:41:27;;;;;;;0.50;0.50;;;;;;;19.73;58.74;100919.84;10597806;28;20406;-73
2022/07/29 13:46:30;;;;;;;0.98;0.88;;;;;;;19.64;57.78;100924.66;10603180;28;20052;-75
2022/07/29 13:51:33;;;;;;;0.60;0.60;;;;;;;19.73;58.71;100922.63;10576217;28;20050;-73
2022/07/29 13:56:35;;;;;;;0.60;0.50;;;;;;;19.72;59.23;100924.59;10582404;28;20524;-70
2022/07/29 14:01:41;;;;;;;0.45;0.43;;;;;;;19.77;59.31;100915.22;10591960;28;20043;-69
2022/07/29 14:06:43;;;;;;;0.40;0.40;;;;;;;19.93;59.95;100919.06;10583101;28;20040;-72
2022/07/29 14:11:45;;;;;;;0.98;0.60;;;;;;;20.00;59.92;100916.56;10588976;28;20047;-70
2022/07/29 14:16:48;;;;;;;0.60;0.60;;;;;;;19.90;59.64;100921.72;10583589;28;20038;-70
2022/07/29 14:21:50;;;;;;;1.15;0.70;;;;;;;19.72;60.62;100926.56;10603036;28;20070;-70
2022/07/29 14:26:53;;;;;;;1.33;0.63;;;;;;;19.55;61.44;100921.91;10585352;28;20058;-71
2022/07/29 14:31:56;;;;;;;0.60;0.60;;;;;;;19.58;61.62;100921.22;10599701;28;20040;-69
2022/07/29 14:36:58;;;;;;;0.88;0.55;;;;;;;19.45;61.35;100934.19;10599472;28;20462;-71
2022/07/29 14:42:00;;;;;;;2.95;1.40;;;;;;;19.30;61.54;100934.75;10592394;28;20532;-71
2022/07/29 14:47:03;;;;;;;1.63;1.15;;;;;;;19.31;62.24;100930.81;10574847;28;20051;-71
2022/07/29 14:52:08;;;;;;;2.60;0.80;;;;;;;19.25;62.27;100921.00;10571390;28;20092;-72
2022/07/29 14:57:16;;;;;;;0.80;0.77;;;;;;;19.36;62.44;100933.41;10527576;28;20039;-69
2022/07/29 15:02:18;;;;;;;0.68;0.55;;;;;;;19.41;63.10;100927.66;10576822;28;20055;-72
2022/07/29 15:07:21;;;;;;;0.90;0.85;;;;;;;19.29;63.52;100935.91;10604852;28;20078;-72
2022/07/29 15:12:23;;;;;;;0.82;0.82;;;;;;;19.36;64.49;100932.59;10599784;28;20048;-71
2022/07/29 15:17:26;;;;;;;0.63;0.63;;;;;;;19.21;65.29;100929.19;10598100;28;20052;-71
2022/07/29 15:22:28;;;;;;;1.15;0.80;;;;;;;19.11;65.54;100918.44;10562189;28;20055;-71
2022/07/29 15:27:30;;;;;;;2.05;0.90;;;;;;;18.95;65.03;100922.91;10605479;28;20043;-70
2022/07/29 15:32:32;;;;;;;1.33;1.23;;;;;;;18.84;65.74;100924.38;10598577;28;20050;-70
2022/07/29 15:37:34;;;;;;;2.00;1.38;;;;;;;18.88;66.03;100926.16;10594728;28;20048;-70
2022/07/29 15:42:37;;;;;;;1.33;1.00;;;;;;;18.66;66.93;100924.41;10608950;28;20051;-70
2022/07/29 15:47:39;;;;;;;0.85;0.73;;;;;;;18.66;67.46;100937.50;10595774;28;20055;-71
2022/07/29 15:52:42;;;;;;;1.00;0.88;;;;;;;18.54;67.68;100940.06;10578535;28;20043;-70
2022/07/29 15:57:44;;;;;;;1.38;1.15;;;;;;;18.40;68.56;100929.16;10609132;28;20035;-70
2022/07/29 16:02:46;;;;;;;1.20;1.10;;;;;;;18.15;68.74;100936.31;10608699;28;20039;-70
2022/07/29 16:07:49;;;;;;;1.25;1.13;;;;;;;17.96;69.81;100941.34;10609814;28;20051;-70
2022/07/29 16:12:51;;;;;;;3.88;1.27;;;;;;;17.76;70.39;100938.03;10605152;28;20418;-70
2022/07/29 16:17:53;;;;;;;1.42;1.33;;;;;;;17.65;71.56;100942.19;10596525;28;20042;-70
2022/07/29 16:22:56;;;;;;;2.15;1.55;;;;;;;17.61;71.77;100946.75;10590487;28;20044;-69
2022/07/29 16:28:01;;;;;;;1.77;1.27;;;;;;;17.53;73.20;100944.78;10555765;28;20048;-70
2022/07/29 16:33:04;;;;;;;1.98;1.38;;;;;;;17.59;73.26;100939.88;10577243;28;20528;-69
2022/07/29 16:38:06;;;;;;;2.17;1.65;;;;;;;17.63;73.94;100938.91;10605804;28;20047;-69
2022/07/29 16:43:08;;;;;;;2.00;1.50;;;;;;;17.66;73.92;100941.06;10596759;28;20035;-69
2022/07/29 16:48:12;;;;;;;2.03;1.15;;;;;;;17.55;74.51;100944.47;10584892;28;20054;-69
2022/07/29 16:53:15;;;;;;;2.97;1.50;;;;;;;17.46;75.17;100947.19;10589315;28;20044;-69
2022/07/29 16:58:20;;;;;;;1.48;1.23;;;;;;;17.37;75.40;100946.34;10583111;28;20039;-69
2022/07/29 17:03:22;;;;;;;2.25;1.33;;;;;;;17.34;75.49;100944.19;10580856;28;20040;-69
2022/07/29 17:08:24;;;;;;;1.48;1.17;;;;;;;17.58;75.42;100941.03;10580011;28;20546;-69
2022/07/29 17:13:26;;;;;;;1.92;1.45;;;;;;;17.51;75.36;100938.69;10581837;28;20078;-70
2022/07/29 17:18:28;;;;;;;1.83;1.27;;;;;;;17.55;75.37;100934.16;10580340;28;20055;-69
2022/07/29 17:23:31;;;;;;;2.53;1.45;;;;;;;17.43;75.51;100936.72;10580046;28;20520;-69
2022/07/29 17:28:33;;;;;;;2.05;1.63;;;;;;;17.30;75.60;100929.31;10567491;28;20509;-69
2022/07/29 17:33:35;;;;;;;2.08;1.67;;;;;;;17.30;75.63;100937.63;10577828;28;20061;-69
2022/07/29 17:38:37;;;;;;;1.27;1.15;;;;;;;17.14;76.18;100932.50;10563475;28;20526;-69
2022/07/29 17:43:41;;;;;;;1.42;1.08;;;;;;;17.27;76.32;100935.50;10583186;28;20047;-71
2022/07/29 17:48:44;;;;;;;1.60;1.10;;;;;;;17.28;76.33;100935.19;10553182;28;20032;-69
2022/07/29 17:53:46;;;;;;;1.45;1.10;;;;;;;17.31;76.17;100922.63;10570599;28;20046;-69
2022/07/29 17:58:49;;;;;;;3.20;1.30;;;;;;;17.16;76.08;100926.63;10553693;28;20052;-70
2022/07/29 18:03:51;;;;;;;3.00;1.15;;;;;;;17.15;76.25;100928.59;10554416;28;20047;-70
2022/07/29 18:08:54;;;;;;;2.45;1.10;;;;;;;17.03;76.12;100930.34;10557623;28;20040;-72
2022/07/29 18:13:56;;;;;;;1.17;0.95;;;;;;;17.09;76.01;100929.88;10558831;28;20065;-71
2022/07/29 18:18:59;;;;;;;1.67;1.48;;;;;;;17.05;76.59;100926.09;10576293;28;20043;-71
2022/07/29 18:24:03;;;;;;;2.78;1.88;;;;;;;17.04;76.07;100926.41;10574182;28;20040;-71
2022/07/29 18:29:05;;;;;;;2.20;1.27;;;;;;;17.07;75.90;100929.38;10560099;28;20047;-70
2022/07/29 18:34:07;;;;;;;1.85;1.58;;;;;;;17.00;75.98;100928.16;10573550;28;20031;-71
2022/07/29 18:39:09;;;;;;;1.20;1.10;;;;;;;16.99;76.74;100932.91;10575187;28;20048;-71
2022/07/29 18:44:15;;;;;;;2.65;1.35;;;;;;;16.97;76.69;100926.84;10557491;28;20512;-71
2022/07/29 18:49:18;;;;;;;1.88;1.05;;;;;;;16.90;77.10;100929.28;10573927;28;20474;-74
2022/07/29 18:54:20;;;;;;;1.50;0.98;;;;;;;16.90;77.00;100934.00;10535632;28;20505;-70
2022/07/29 18:59:23;;;;;;;1.00;0.90;;;;;;;16.83;77.08;100934.41;10573531;28;20047;-71
2022/07/29 19:04:25;;;;;;;1.65;1.33;;;;;;;16.76;77.80;100936.84;10574237;28;20056;-71
2022/07/29 19:09:28;;;;;;;1.85;1.23;;;;;;;16.72;78.22;100933.06;10576201;28;20052;-71
2022/07/29 19:14:30;;;;;;;2.83;1.58;;;;;;;16.66;78.11;100937.03;10554986;28;20054;-71
2022/07/29 19:19:34;;;;;;;2.10;1.15;;;;;;;16.64;78.66;100925.47;10546947;28;20036;-71
2022/07/29 19:24:38;;;;;;;1.00;0.90;;;;;;;16.66;78.06;100939.81;10578278;28;20040;-71
2022/07/29 19:29:40;;;;;;;1.52;0.75;;;;;;;16.78;77.57;100935.38;10579592;28;20042;-72
2022/07/29 19:35:22;;;;;;;1.95;0.70;;;;;;;16.74;77.42;100931.59;10531597;28;20042;-71
2022/07/29 19:40:06;;;;;;;0.95;0.68;;;;;;;16.85;76.65;100929.41;10581069;28;20800;-71
2022/07/29 19:45:10;;;;;;;1.95;1.00;;;;;;;16.80;76.37;100935.06;10565060;28;20556;-71
2022/07/29 19:50:13;;;;;;;1.85;1.00;;;;;;;16.67;76.19;100930.44;10547046;28;20036;-71
2022/07/29 19:55:16;;;;;;;1.63;1.17;;;;;;;16.61;76.04;100923.31;10578278;28;20066;-71
2022/07/29 20:00:20;;;;;;;1.38;1.10;;;;;;;16.59;75.49;100929.19;10579321;28;20047;-71
2022/07/29 20:05:25;;;;;;;1.20;1.10;;;;;;;16.55;75.46;100930.94;10561974;28;20867;-72
2022/07/29 20:10:31;;;;;;;1.00;0.88;;;;;;;16.52;75.20;100929.63;10536868;28;20120;-72
2022/07/29 20:15:33;;;;;;;0.88;0.70;;;;;;;16.47;75.29;100926.97;10579610;28;20043;-72
2022/07/29 20:20:35;;;;;;;2.40;0.95;;;;;;;16.47;75.16;100926.13;10576544;28;20058;-72
2022/07/29 20:25:38;;;;;;;2.55;0.88;;;;;;;16.39;74.92;100924.13;10580230;28;20051;-72
2022/07/29 20:30:40;;;;;;;1.20;0.65;;;;;;;16.43;74.26;100931.50;10578760;28;20050;-72
2022/07/29 20:35:42;;;;;;;0.80;0.70;;;;;;;16.38;74.11;100928.03;10581054;28;20042;-71
2022/07/29 20:40:45;;;;;;;1.48;1.17;;;;;;;16.32;73.83;100921.81;10577076;28;20043;-71
2022/07/29 20:45:47;;;;;;;3.28;1.20;;;;;;;16.39;73.64;100922.19;10578070;28;20046;-71
2022/07/29 20:50:50;;;;;;;0.88;0.82;;;;;;;16.39;73.16;100930.50;10569722;28;20043;-71
2022/07/29 20:55:52;;;;;;;1.80;1.17;;;;;;;16.38;72.96;100917.78;10569042;28;20035;-71
2022/07/29 21:00:55;;;;;;;1.10;0.90;;;;;;;16.43;72.75;100914.88;10566697;28;20040;-69
2022/07/29 21:05:58;;;;;;;0.98;0.73;;;;;;;16.49;72.76;100912.81;10565805;28;20056;-68
2022/07/29 21:11:01;;;;;;;0.70;0.63;;;;;;;16.58;72.40;100910.91;10568297;28;20051;-69
2022/07/29 21:16:14;;;;;;;1.75;0.80;;;;;;;16.55;72.50;100906.84;10543037;28;21220;-69
2022/07/29 21:21:19;;;;;;;0.53;0.50;;;;;;;16.56;72.63;100914.00;10548000;28;20151;-69
2022/07/29 21:26:22;;;;;;;0.98;0.60;;;;;;;16.51;73.14;100910.56;10566529;28;21857;-69
2022/07/29 21:31:25;;;;;;;0.40;0.40;;;;;;;16.57;73.24;100904.56;10566463;28;20044;-69
2022/07/29 21:36:28;;;;;;;0.57;0.52;;;;;;;16.80;72.95;100908.16;10568311;28;20039;-69
2022/07/29 21:41:30;;;;;;;0.63;0.63;;;;;;;16.82;72.50;100905.88;10567379;28;20043;-69
2022/07/29 21:46:32;;;;;;;0.88;0.75;;;;;;;16.71;72.72;100898.19;10563450;28;20047;-71
2022/07/29 21:51:34;;;;;;;1.58;1.35;;;;;;;16.59;72.80;100896.75;10566562;28;20048;-71
2022/07/29 21:56:37;;;;;;;1.00;0.82;;;;;;;16.59;72.87;100893.97;10564699;28;20039;-71
2022/07/29 22:01:39;;;;;;;7.47;3.78;;;;;;;16.55;73.67;100887.44;10565683;28;20501;-71
2022/07/29 22:06:41;;;;;;;1.77;1.10;;;;;;;16.55;73.27;100887.44;10569786;28;20102;-71
2022/07/29 22:11:43;;;;;;;0.55;0.50;;;;;;;16.48;73.68;100880.69;10557742;28;20420;-71
2022/07/29 22:16:46;;;;;;;0.93;0.63;;;;;;;16.50;74.17;100884.00;10576097;28;20398;-74
2022/07/29 22:21:49;;;;;;;0.50;0.50;;;;;;;16.53;74.08;100889.72;10562036;28;20051;-77
2022/07/29 22:26:52;;;;;;;3.28;2.00;;;;;;;16.57;74.10;100882.41;10544997;28;20040;-79
2022/07/29 22:31:54;;;;;;;0.75;0.60;;;;;;;16.55;74.22;100886.63;10580446;28;20382;-76
2022/07/29 22:36:57;;;;;;;6.95;4.28;;;;;;;16.53;73.97;100886.94;10580390;28;20035;-77
2022/07/29 22:42:00;;;;;;;0.60;0.50;;;;;;;16.52;73.91;100888.06;10577656;28;20501;-78
2022/07/29 22:47:03;;;;;;;2.05;0.60;;;;;;;16.50;74.00;100881.22;10584127;28;20047;-78
2022/07/29 22:52:05;;;;;;;0.73;0.60;;;;;;;16.49;73.85;100885.94;10587723;28;20543;-77
2022/07/29 22:57:08;;;;;;;0.55;0.55;;;;;;;16.40;73.80;100879.50;10587351;28;20520;-78
2022/07/29 23:02:10;;;;;;;1.48;0.50;;;;;;;16.32;73.48;100885.81;10586489;28;20048;-78
2022/07/29 23:07:13;;;;;;;0.85;0.55;;;;;;;16.24;73.84;100889.31;10586992;28;20051;-76
2022/07/29 23:12:16;;;;;;;1.95;1.15;;;;;;;16.22;73.58;100886.84;10586886;28;20047;-76
2022/07/29 23:17:18;;;;;;;0.65;0.65;;;;;;;16.25;73.41;100886.22;10588205;28;20071;-78
2022/07/29 23:22:21;;;;;;;0.82;0.60;;;;;;;16.24;73.07;100883.78;10585630;28;20047;-77
2022/07/29 23:27:24;;;;;;;0.80;0.60;;;;;;;16.24;73.46;100881.81;10569873;28;20044;-79